sensor_id;sensor_type;location;lat;lon;timestamp;temperature;humidity
17296;DHT22;8766;51.480;6.872;2022-10-23T00:00:17;14.90;74.50
17296;DHT22;8766;51.480;6.872;2022-10-23T00:02:44;14.80;74.50
17296;DHT22;8766;51.480;6.872;2022-10-23T00:05:18;14.80;74.50
17296;DHT22;8766;51.480;6.872;2022-10-23T00:07:49;14.80;74.60
17296;DHT22;8766;51.480;6.872;2022-10-23T00:10:16;14.70;74.70
17296;DHT22;8766;51.480;6.872;2022-10-23T00:12:43;14.70;74.70
17296;DHT22;8766;51.480;6.872;2022-10-23T00:15:11;14.70;74.80
17296;DHT22;8766;51.480;6.872;2022-10-23T00:17:38;14.70;74.80
17296;DHT22;8766;51.480;6.872;2022-10-23T00:20:06;14.60;74.80
17296;DHT22;8766;51.480;6.872;2022-10-23T00:22:35;14.60;74.90
17296;DHT22;8766;51.480;6.872;2022-10-23T00:25:02;14.60;74.90
17296;DHT22;8766;51.480;6.872;2022-10-23T00:27:29;14.60;75.00
17296;DHT22;8766;51.480;6.872;2022-10-23T00:29:57;14.60;75.10
17296;DHT22;8766;51.480;6.872;2022-10-23T00:32:23;14.50;75.00
17296;DHT22;8766;51.480;6.872;2022-10-23T00:34:50;14.50;75.00
17296;DHT22;8766;51.480;6.872;2022-10-23T00:37:17;14.50;75.00
17296;DHT22;8766;51.480;6.872;2022-10-23T00:39:46;14.50;75.10
17296;DHT22;8766;51.480;6.872;2022-10-23T00:42:14;14.50;75.10
17296;DHT22;8766;51.480;6.872;2022-10-23T00:45:11;14.50;75.10
17296;DHT22;8766;51.480;6.872;2022-10-23T00:47:40;14.50;75.20
17296;DHT22;8766;51.480;6.872;2022-10-23T00:50:08;14.50;75.10
17296;DHT22;8766;51.480;6.872;2022-10-23T00:52:37;14.50;75.10
17296;DHT22;8766;51.480;6.872;2022-10-23T00:55:08;14.50;75.00
17296;DHT22;8766;51.480;6.872;2022-10-23T00:57:36;14.50;75.00
17296;DHT22;8766;51.480;6.872;2022-10-23T01:00:04;14.50;75.00
17296;DHT22;8766;51.480;6.872;2022-10-23T01:02:31;14.50;75.00
17296;DHT22;8766;51.480;6.872;2022-10-23T01:04:58;14.50;74.90
17296;DHT22;8766;51.480;6.872;2022-10-23T01:07:30;14.50;74.90
17296;DHT22;8766;51.480;6.872;2022-10-23T01:10:04;14.60;75.00
17296;DHT22;8766;51.480;6.872;2022-10-23T01:12:37;14.60;74.90
17296;DHT22;8766;51.480;6.872;2022-10-23T01:15:13;14.60;74.90
17296;DHT22;8766;51.480;6.872;2022-10-23T01:17:45;14.60;74.80
17296;DHT22;8766;51.480;6.872;2022-10-23T01:20:28;14.60;74.80
17296;DHT22;8766;51.480;6.872;2022-10-23T01:23:10;14.60;74.80
17296;DHT22;8766;51.480;6.872;2022-10-23T01:25:52;14.60;74.80
17296;DHT22;8766;51.480;6.872;2022-10-23T01:28:27;14.60;74.80
17296;DHT22;8766;51.480;6.872;2022-10-23T01:30:57;14.60;74.70
17296;DHT22;8766;51.480;6.872;2022-10-23T01:33:27;14.60;74.70
17296;DHT22;8766;51.480;6.872;2022-10-23T01:36:00;14.60;74.70
17296;DHT22;8766;51.480;6.872;2022-10-23T01:38:36;14.60;74.70
17296;DHT22;8766;51.480;6.872;2022-10-23T01:41:10;14.60;74.70
17296;DHT22;8766;51.480;6.872;2022-10-23T01:43:42;14.60;74.70
17296;DHT22;8766;51.480;6.872;2022-10-23T01:46:13;14.60;74.70
17296;DHT22;8766;51.480;6.872;2022-10-23T01:48:46;14.60;74.80
17296;DHT22;8766;51.480;6.872;2022-10-23T01:51:14;14.60;74.80
17296;DHT22;8766;51.480;6.872;2022-10-23T01:53:43;14.50;74.80
17296;DHT22;8766;51.480;6.872;2022-10-23T01:56:14;14.50;74.80
17296;DHT22;8766;51.480;6.872;2022-10-23T01:58:46;14.50;74.90
17296;DHT22;8766;51.480;6.872;2022-10-23T02:01:14;14.50;75.00
17296;DHT22;8766;51.480;6.872;2022-10-23T02:03:43;14.40;75.00
17296;DHT22;8766;51.480;6.872;2022-10-23T02:06:10;14.40;75.00
17296;DHT22;8766;51.480;6.872;2022-10-23T02:08:37;14.40;74.90
17296;DHT22;8766;51.480;6.872;2022-10-23T02:11:07;14.40;75.00
17296;DHT22;8766;51.480;6.872;2022-10-23T02:13:41;14.40;75.00
17296;DHT22;8766;51.480;6.872;2022-10-23T02:16:18;14.40;75.00
17296;DHT22;8766;51.480;6.872;2022-10-23T02:18:52;14.40;75.00
17296;DHT22;8766;51.480;6.872;2022-10-23T02:21:26;14.40;75.10
17296;DHT22;8766;51.480;6.872;2022-10-23T02:23:58;14.40;75.10
17296;DHT22;8766;51.480;6.872;2022-10-23T02:26:29;14.30;75.10
17296;DHT22;8766;51.480;6.872;2022-10-23T02:29:04;14.30;75.20
17296;DHT22;8766;51.480;6.872;2022-10-23T02:31:34;14.30;75.20
17296;DHT22;8766;51.480;6.872;2022-10-23T02:34:02;14.30;75.30
17296;DHT22;8766;51.480;6.872;2022-10-23T02:36:29;14.20;75.30
17296;DHT22;8766;51.480;6.872;2022-10-23T02:38:56;14.20;75.30
17296;DHT22;8766;51.480;6.872;2022-10-23T02:41:34;14.20;75.30
17296;DHT22;8766;51.480;6.872;2022-10-23T02:44:16;14.20;75.40
17296;DHT22;8766;51.480;6.872;2022-10-23T02:46:54;14.20;75.40
17296;DHT22;8766;51.480;6.872;2022-10-23T02:49:24;14.20;75.40
17296;DHT22;8766;51.480;6.872;2022-10-23T02:52:02;14.20;75.40
17296;DHT22;8766;51.480;6.872;2022-10-23T02:54:38;14.20;75.40
17296;DHT22;8766;51.480;6.872;2022-10-23T02:57:14;14.10;75.30
17296;DHT22;8766;51.480;6.872;2022-10-23T02:59:44;14.10;75.40
17296;DHT22;8766;51.480;6.872;2022-10-23T03:02:17;14.10;75.40
17296;DHT22;8766;51.480;6.872;2022-10-23T03:04:47;14.10;75.50
17296;DHT22;8766;51.480;6.872;2022-10-23T03:07:14;14.10;75.50
17296;DHT22;8766;51.480;6.872;2022-10-23T03:09:44;14.10;75.50
17296;DHT22;8766;51.480;6.872;2022-10-23T03:12:11;14.10;75.50
17296;DHT22;8766;51.480;6.872;2022-10-23T03:14:38;14.10;75.50
17296;DHT22;8766;51.480;6.872;2022-10-23T03:17:04;14.00;75.50
17296;DHT22;8766;51.480;6.872;2022-10-23T03:19:33;14.00;75.50
17296;DHT22;8766;51.480;6.872;2022-10-23T03:22:00;14.00;75.60
17296;DHT22;8766;51.480;6.872;2022-10-23T03:24:26;14.00;75.60
17296;DHT22;8766;51.480;6.872;2022-10-23T03:26:53;14.00;75.60
17296;DHT22;8766;51.480;6.872;2022-10-23T03:29:20;14.00;75.60
17296;DHT22;8766;51.480;6.872;2022-10-23T03:31:47;14.00;75.70
17296;DHT22;8766;51.480;6.872;2022-10-23T03:34:14;13.90;75.60
17296;DHT22;8766;51.480;6.872;2022-10-23T03:36:42;14.00;75.70
17296;DHT22;8766;51.480;6.872;2022-10-23T03:39:09;13.90;75.70
17296;DHT22;8766;51.480;6.872;2022-10-23T03:41:36;13.90;75.70
17296;DHT22;8766;51.480;6.872;2022-10-23T03:44:03;13.90;75.70
17296;DHT22;8766;51.480;6.872;2022-10-23T03:46:30;13.90;75.70
17296;DHT22;8766;51.480;6.872;2022-10-23T03:48:57;13.90;75.70
17296;DHT22;8766;51.480;6.872;2022-10-23T03:51:24;13.90;75.70
17296;DHT22;8766;51.480;6.872;2022-10-23T03:53:53;13.90;75.70
17296;DHT22;8766;51.480;6.872;2022-10-23T03:56:20;13.90;75.60
17296;DHT22;8766;51.480;6.872;2022-10-23T03:58:46;13.90;75.60
17296;DHT22;8766;51.480;6.872;2022-10-23T04:01:13;14.00;75.70
17296;DHT22;8766;51.480;6.872;2022-10-23T04:03:41;13.90;75.50
17296;DHT22;8766;51.480;6.872;2022-10-23T04:06:07;13.90;75.50
17296;DHT22;8766;51.480;6.872;2022-10-23T04:08:34;13.90;75.50
17296;DHT22;8766;51.480;6.872;2022-10-23T04:11:03;14.00;75.50
17296;DHT22;8766;51.480;6.872;2022-10-23T04:13:30;14.00;75.50
17296;DHT22;8766;51.480;6.872;2022-10-23T04:15:57;14.00;75.50
17296;DHT22;8766;51.480;6.872;2022-10-23T04:18:23;14.00;75.50
17296;DHT22;8766;51.480;6.872;2022-10-23T04:20:51;14.00;75.50
17296;DHT22;8766;51.480;6.872;2022-10-23T04:23:18;14.00;75.40
17296;DHT22;8766;51.480;6.872;2022-10-23T04:25:45;14.00;75.50
17296;DHT22;8766;51.480;6.872;2022-10-23T04:28:14;14.00;76.00
17296;DHT22;8766;51.480;6.872;2022-10-23T04:30:41;14.00;75.40
17296;DHT22;8766;51.480;6.872;2022-10-23T04:33:07;14.00;75.40
17296;DHT22;8766;51.480;6.872;2022-10-23T04:35:34;14.10;75.50
17296;DHT22;8766;51.480;6.872;2022-10-23T04:38:01;14.00;75.40
17296;DHT22;8766;51.480;6.872;2022-10-23T04:40:28;14.10;75.40
17296;DHT22;8766;51.480;6.872;2022-10-23T04:42:55;14.10;75.30
17296;DHT22;8766;51.480;6.872;2022-10-23T04:45:23;14.10;75.30
17296;DHT22;8766;51.480;6.872;2022-10-23T04:47:50;14.10;75.40
17296;DHT22;8766;51.480;6.872;2022-10-23T04:50:18;14.10;75.30
17296;DHT22;8766;51.480;6.872;2022-10-23T04:52:45;14.10;75.40
17296;DHT22;8766;51.480;6.872;2022-10-23T04:55:12;14.00;75.30
17296;DHT22;8766;51.480;6.872;2022-10-23T04:57:39;14.00;75.30
17296;DHT22;8766;51.480;6.872;2022-10-23T05:00:08;14.00;75.30
17296;DHT22;8766;51.480;6.872;2022-10-23T05:02:37;14.00;75.30
17296;DHT22;8766;51.480;6.872;2022-10-23T05:05:05;14.00;75.70
17296;DHT22;8766;51.480;6.872;2022-10-23T05:07:32;14.00;75.40
17296;DHT22;8766;51.480;6.872;2022-10-23T05:09:59;14.00;75.40
17296;DHT22;8766;51.480;6.872;2022-10-23T05:12:26;14.00;75.40
17296;DHT22;8766;51.480;6.872;2022-10-23T05:14:53;14.00;75.40
17296;DHT22;8766;51.480;6.872;2022-10-23T05:17:22;14.00;75.40
17296;DHT22;8766;51.480;6.872;2022-10-23T05:19:55;14.00;75.40
17296;DHT22;8766;51.480;6.872;2022-10-23T05:22:27;14.00;75.40
17296;DHT22;8766;51.480;6.872;2022-10-23T05:24:55;14.00;75.40
17296;DHT22;8766;51.480;6.872;2022-10-23T05:27:22;14.00;75.40
17296;DHT22;8766;51.480;6.872;2022-10-23T05:29:49;14.00;75.40
17296;DHT22;8766;51.480;6.872;2022-10-23T05:32:16;14.00;76.10
17296;DHT22;8766;51.480;6.872;2022-10-23T05:34:43;14.00;75.50
17296;DHT22;8766;51.480;6.872;2022-10-23T05:37:13;14.00;75.50
17296;DHT22;8766;51.480;6.872;2022-10-23T05:39:42;13.90;75.50
17296;DHT22;8766;51.480;6.872;2022-10-23T05:42:09;13.90;75.50
17296;DHT22;8766;51.480;6.872;2022-10-23T05:44:36;13.90;75.50
17296;DHT22;8766;51.480;6.872;2022-10-23T05:47:02;13.90;75.50
17296;DHT22;8766;51.480;6.872;2022-10-23T05:49:29;13.90;75.50
17296;DHT22;8766;51.480;6.872;2022-10-23T05:51:56;13.90;75.50
17296;DHT22;8766;51.480;6.872;2022-10-23T05:54:24;13.90;75.60
17296;DHT22;8766;51.480;6.872;2022-10-23T05:56:51;13.90;75.60
17296;DHT22;8766;51.480;6.872;2022-10-23T05:59:18;13.90;75.60
17296;DHT22;8766;51.480;6.872;2022-10-23T06:01:45;13.90;75.70
17296;DHT22;8766;51.480;6.872;2022-10-23T06:04:12;13.90;75.70
17296;DHT22;8766;51.480;6.872;2022-10-23T06:06:39;13.90;75.60
17296;DHT22;8766;51.480;6.872;2022-10-23T06:09:06;13.90;75.60
17296;DHT22;8766;51.480;6.872;2022-10-23T06:11:34;13.90;75.70
17296;DHT22;8766;51.480;6.872;2022-10-23T06:14:01;13.90;75.70
17296;DHT22;8766;51.480;6.872;2022-10-23T06:16:28;13.90;75.70
17296;DHT22;8766;51.480;6.872;2022-10-23T06:18:54;13.90;76.00
17296;DHT22;8766;51.480;6.872;2022-10-23T06:21:22;13.90;75.60
17296;DHT22;8766;51.480;6.872;2022-10-23T06:23:49;13.90;75.70
17296;DHT22;8766;51.480;6.872;2022-10-23T06:26:17;13.90;75.70
17296;DHT22;8766;51.480;6.872;2022-10-23T06:28:45;13.90;75.70
17296;DHT22;8766;51.480;6.872;2022-10-23T06:31:14;13.90;75.70
17296;DHT22;8766;51.480;6.872;2022-10-23T06:33:43;13.90;75.60
17296;DHT22;8766;51.480;6.872;2022-10-23T06:36:10;13.90;75.60
17296;DHT22;8766;51.480;6.872;2022-10-23T06:38:37;13.90;75.60
17296;DHT22;8766;51.480;6.872;2022-10-23T06:41:06;13.90;75.50
17296;DHT22;8766;51.480;6.872;2022-10-23T06:43:33;13.90;75.50
17296;DHT22;8766;51.480;6.872;2022-10-23T06:46:02;13.90;75.40
17296;DHT22;8766;51.480;6.872;2022-10-23T06:48:30;14.00;75.50
17296;DHT22;8766;51.480;6.872;2022-10-23T06:50:57;14.00;75.40
17296;DHT22;8766;51.480;6.872;2022-10-23T06:53:24;14.00;75.30
17296;DHT22;8766;51.480;6.872;2022-10-23T06:55:57;14.00;75.30
17296;DHT22;8766;51.480;6.872;2022-10-23T06:58:24;14.00;75.20
17296;DHT22;8766;51.480;6.872;2022-10-23T07:00:52;14.10;75.20
17296;DHT22;8766;51.480;6.872;2022-10-23T07:03:20;14.10;75.10
17296;DHT22;8766;51.480;6.872;2022-10-23T07:05:47;14.10;75.10
17296;DHT22;8766;51.480;6.872;2022-10-23T07:08:14;14.20;75.00
17296;DHT22;8766;51.480;6.872;2022-10-23T07:10:41;14.20;75.00
17296;DHT22;8766;51.480;6.872;2022-10-23T07:13:08;14.20;75.00
17296;DHT22;8766;51.480;6.872;2022-10-23T07:15:36;14.20;74.90
17296;DHT22;8766;51.480;6.872;2022-10-23T07:18:03;14.20;74.90
17296;DHT22;8766;51.480;6.872;2022-10-23T07:20:32;14.30;74.90
17296;DHT22;8766;51.480;6.872;2022-10-23T07:22:59;14.30;74.80
17296;DHT22;8766;51.480;6.872;2022-10-23T07:25:26;14.30;74.80
17296;DHT22;8766;51.480;6.872;2022-10-23T07:27:53;14.30;74.70
17296;DHT22;8766;51.480;6.872;2022-10-23T07:30:21;14.40;74.70
17296;DHT22;8766;51.480;6.872;2022-10-23T07:32:48;14.40;74.60
17296;DHT22;8766;51.480;6.872;2022-10-23T07:35:16;14.40;74.40
17296;DHT22;8766;51.480;6.872;2022-10-23T07:37:44;14.50;74.40
17296;DHT22;8766;51.480;6.872;2022-10-23T07:40:11;14.50;74.20
17296;DHT22;8766;51.480;6.872;2022-10-23T07:42:38;14.60;74.20
17296;DHT22;8766;51.480;6.872;2022-10-23T07:45:06;14.70;74.10
17296;DHT22;8766;51.480;6.872;2022-10-23T07:47:33;14.70;73.90
17296;DHT22;8766;51.480;6.872;2022-10-23T07:50:00;14.80;73.80
17296;DHT22;8766;51.480;6.872;2022-10-23T07:52:27;14.80;73.70
17296;DHT22;8766;51.480;6.872;2022-10-23T07:54:55;14.90;73.60
17296;DHT22;8766;51.480;6.872;2022-10-23T07:57:22;15.00;73.50
17296;DHT22;8766;51.480;6.872;2022-10-23T07:59:49;15.00;73.30
17296;DHT22;8766;51.480;6.872;2022-10-23T08:02:16;15.10;73.10
17296;DHT22;8766;51.480;6.872;2022-10-23T08:04:43;15.20;73.00
17296;DHT22;8766;51.480;6.872;2022-10-23T08:07:09;15.20;72.80
17296;DHT22;8766;51.480;6.872;2022-10-23T08:09:36;15.30;72.80
17296;DHT22;8766;51.480;6.872;2022-10-23T08:12:05;15.40;72.70
17296;DHT22;8766;51.480;6.872;2022-10-23T08:14:32;15.50;72.60
17296;DHT22;8766;51.480;6.872;2022-10-23T08:16:59;15.50;72.50
17296;DHT22;8766;51.480;6.872;2022-10-23T08:19:25;15.50;72.30
17296;DHT22;8766;51.480;6.872;2022-10-23T08:21:52;15.60;72.20
17296;DHT22;8766;51.480;6.872;2022-10-23T08:24:21;15.70;72.10
17296;DHT22;8766;51.480;6.872;2022-10-23T08:26:49;15.80;71.90
17296;DHT22;8766;51.480;6.872;2022-10-23T08:29:17;15.90;71.70
17296;DHT22;8766;51.480;6.872;2022-10-23T08:31:44;16.10;71.40
17296;DHT22;8766;51.480;6.872;2022-10-23T08:34:11;16.30;70.90
17296;DHT22;8766;51.480;6.872;2022-10-23T08:36:38;16.60;70.50
17296;DHT22;8766;51.480;6.872;2022-10-23T08:39:05;16.80;69.80
17296;DHT22;8766;51.480;6.872;2022-10-23T08:41:34;17.10;69.40
17296;DHT22;8766;51.480;6.872;2022-10-23T08:44:07;17.40;68.90
17296;DHT22;8766;51.480;6.872;2022-10-23T08:46:38;17.90;68.00
17296;DHT22;8766;51.480;6.872;2022-10-23T08:49:19;18.30;66.80
17296;DHT22;8766;51.480;6.872;2022-10-23T08:51:50;18.70;66.10
17296;DHT22;8766;51.480;6.872;2022-10-23T08:54:21;18.90;65.70
17296;DHT22;8766;51.480;6.872;2022-10-23T08:56:54;18.90;65.70
17296;DHT22;8766;51.480;6.872;2022-10-23T08:59:28;18.90;66.00
17296;DHT22;8766;51.480;6.872;2022-10-23T09:02:00;18.70;66.40
17296;DHT22;8766;51.480;6.872;2022-10-23T09:04:27;18.50;66.80
17296;DHT22;8766;51.480;6.872;2022-10-23T09:07:02;18.30;67.40
17296;DHT22;8766;51.480;6.872;2022-10-23T09:09:48;18.10;68.50
17296;DHT22;8766;51.480;6.872;2022-10-23T09:12:20;17.90;68.40
17296;DHT22;8766;51.480;6.872;2022-10-23T09:15:13;17.70;68.80
17296;DHT22;8766;51.480;6.872;2022-10-23T09:17:43;17.60;69.30
17296;DHT22;8766;51.480;6.872;2022-10-23T09:20:17;17.40;69.50
17296;DHT22;8766;51.480;6.872;2022-10-23T09:22:44;17.40;69.80
17296;DHT22;8766;51.480;6.872;2022-10-23T09:25:17;17.30;69.90
17296;DHT22;8766;51.480;6.872;2022-10-23T09:27:49;17.30;70.00
17296;DHT22;8766;51.480;6.872;2022-10-23T09:30:30;17.30;70.00
17296;DHT22;8766;51.480;6.872;2022-10-23T09:33:00;17.30;70.00
17296;DHT22;8766;51.480;6.872;2022-10-23T09:35:28;17.30;69.80
17296;DHT22;8766;51.480;6.872;2022-10-23T09:37:56;17.40;69.80
17296;DHT22;8766;51.480;6.872;2022-10-23T09:40:28;17.40;69.70
17296;DHT22;8766;51.480;6.872;2022-10-23T09:42:59;17.40;70.20
17296;DHT22;8766;51.480;6.872;2022-10-23T09:45:30;17.50;69.50
17296;DHT22;8766;51.480;6.872;2022-10-23T09:48:20;17.50;69.30
17296;DHT22;8766;51.480;6.872;2022-10-23T09:50:49;17.60;69.30
17296;DHT22;8766;51.480;6.872;2022-10-23T09:53:27;17.60;69.10
17296;DHT22;8766;51.480;6.872;2022-10-23T09:55:57;17.70;69.10
17296;DHT22;8766;51.480;6.872;2022-10-23T09:58:31;17.70;68.90
17296;DHT22;8766;51.480;6.872;2022-10-23T10:00:58;17.80;69.50
17296;DHT22;8766;51.480;6.872;2022-10-23T10:03:26;17.90;68.70
17296;DHT22;8766;51.480;6.872;2022-10-23T10:05:56;17.90;68.40
17296;DHT22;8766;51.480;6.872;2022-10-23T10:08:38;18.00;68.20
17296;DHT22;8766;51.480;6.872;2022-10-23T10:11:11;18.20;68.10
17296;DHT22;8766;51.480;6.872;2022-10-23T10:13:57;18.20;67.90
17296;DHT22;8766;51.480;6.872;2022-10-23T10:16:32;18.20;67.70
17296;DHT22;8766;51.480;6.872;2022-10-23T10:19:15;18.30;67.80
17296;DHT22;8766;51.480;6.872;2022-10-23T10:21:47;18.30;67.80
17296;DHT22;8766;51.480;6.872;2022-10-23T10:24:19;18.30;67.80
17296;DHT22;8766;51.480;6.872;2022-10-23T10:26:53;18.30;67.80
17296;DHT22;8766;51.480;6.872;2022-10-23T10:29:35;18.20;67.90
17296;DHT22;8766;51.480;6.872;2022-10-23T10:32:15;18.20;67.90
17296;DHT22;8766;51.480;6.872;2022-10-23T10:34:52;18.20;68.00
17296;DHT22;8766;51.480;6.872;2022-10-23T10:37:25;18.20;68.00
17296;DHT22;8766;51.480;6.872;2022-10-23T10:39:59;18.20;68.10
17296;DHT22;8766;51.480;6.872;2022-10-23T10:42:40;18.20;68.10
17296;DHT22;8766;51.480;6.872;2022-10-23T10:45:29;18.20;68.10
17296;DHT22;8766;51.480;6.872;2022-10-23T10:48:07;18.20;68.10
17296;DHT22;8766;51.480;6.872;2022-10-23T10:50:44;18.20;68.00
17296;DHT22;8766;51.480;6.872;2022-10-23T10:53:19;18.30;68.00
17296;DHT22;8766;51.480;6.872;2022-10-23T10:55:49;18.30;67.90
17296;DHT22;8766;51.480;6.872;2022-10-23T10:58:19;18.40;67.80
17296;DHT22;8766;51.480;6.872;2022-10-23T11:00:51;18.40;67.70
17296;DHT22;8766;51.480;6.872;2022-10-23T11:03:29;18.50;67.70
17296;DHT22;8766;51.480;6.872;2022-10-23T11:05:59;18.50;67.60
17296;DHT22;8766;51.480;6.872;2022-10-23T11:08:33;18.50;67.60
17296;DHT22;8766;51.480;6.872;2022-10-23T11:11:04;18.60;67.60
17296;DHT22;8766;51.480;6.872;2022-10-23T11:13:34;18.60;67.50
17296;DHT22;8766;51.480;6.872;2022-10-23T11:16:07;18.70;67.40
17296;DHT22;8766;51.480;6.872;2022-10-23T11:18:36;18.70;67.30
17296;DHT22;8766;51.480;6.872;2022-10-23T11:21:18;18.70;67.20
17296;DHT22;8766;51.480;6.872;2022-10-23T11:27:12;18.80;67.10
17296;DHT22;8766;51.480;6.872;2022-10-23T11:30:24;18.90;66.90
17296;DHT22;8766;51.480;6.872;2022-10-23T11:33:34;19.00;66.80
17296;DHT22;8766;51.480;6.872;2022-10-23T11:36:12;19.00;66.60
17296;DHT22;8766;51.480;6.872;2022-10-23T11:38:41;19.00;66.60
17296;DHT22;8766;51.480;6.872;2022-10-23T11:41:17;19.10;66.60
17296;DHT22;8766;51.480;6.872;2022-10-23T11:43:48;19.10;66.50
17296;DHT22;8766;51.480;6.872;2022-10-23T11:46:28;19.20;66.40
17296;DHT22;8766;51.480;6.872;2022-10-23T11:48:56;19.20;66.30
17296;DHT22;8766;51.480;6.872;2022-10-23T11:51:29;19.30;66.30
17296;DHT22;8766;51.480;6.872;2022-10-23T11:54:17;19.30;66.20
17296;DHT22;8766;51.480;6.872;2022-10-23T11:56:51;19.30;66.20
17296;DHT22;8766;51.480;6.872;2022-10-23T11:59:22;19.30;66.30
17296;DHT22;8766;51.480;6.872;2022-10-23T12:01:52;19.30;66.40
17296;DHT22;8766;51.480;6.872;2022-10-23T12:04:23;19.30;66.40
17296;DHT22;8766;51.480;6.872;2022-10-23T12:06:54;19.20;66.50
17296;DHT22;8766;51.480;6.872;2022-10-23T12:09:30;19.20;66.60
17296;DHT22;8766;51.480;6.872;2022-10-23T12:12:11;19.20;66.70
17296;DHT22;8766;51.480;6.872;2022-10-23T12:14:40;19.20;66.80
17296;DHT22;8766;51.480;6.872;2022-10-23T12:17:31;19.20;66.80
17296;DHT22;8766;51.480;6.872;2022-10-23T12:20:22;19.20;66.80
17296;DHT22;8766;51.480;6.872;2022-10-23T12:23:02;19.30;66.60
17296;DHT22;8766;51.480;6.872;2022-10-23T12:25:42;19.40;66.40
17296;DHT22;8766;51.480;6.872;2022-10-23T12:28:23;19.60;66.20
17296;DHT22;8766;51.480;6.872;2022-10-23T12:30:59;19.60;65.90
17296;DHT22;8766;51.480;6.872;2022-10-23T12:33:34;19.70;65.60
17296;DHT22;8766;51.480;6.872;2022-10-23T12:36:15;19.80;65.40
17296;DHT22;8766;51.480;6.872;2022-10-23T12:38:45;19.90;65.30
17296;DHT22;8766;51.480;6.872;2022-10-23T12:41:15;19.90;65.20
17296;DHT22;8766;51.480;6.872;2022-10-23T12:43:43;20.00;65.20
17296;DHT22;8766;51.480;6.872;2022-10-23T12:46:32;20.00;65.30
17296;DHT22;8766;51.480;6.872;2022-10-23T12:49:01;19.90;65.30
17296;DHT22;8766;51.480;6.872;2022-10-23T12:51:30;19.90;65.40
17296;DHT22;8766;51.480;6.872;2022-10-23T12:53:59;19.90;65.50
17296;DHT22;8766;51.480;6.872;2022-10-23T12:56:26;19.90;65.50
17296;DHT22;8766;51.480;6.872;2022-10-23T12:58:59;19.90;65.40
17296;DHT22;8766;51.480;6.872;2022-10-23T13:01:27;20.00;65.50
17296;DHT22;8766;51.480;6.872;2022-10-23T13:04:00;20.00;65.40
17296;DHT22;8766;51.480;6.872;2022-10-23T13:06:28;20.10;65.40
17296;DHT22;8766;51.480;6.872;2022-10-23T13:08:55;20.00;65.30
17296;DHT22;8766;51.480;6.872;2022-10-23T13:11:24;20.10;65.40
17296;DHT22;8766;51.480;6.872;2022-10-23T13:13:52;20.10;65.40
17296;DHT22;8766;51.480;6.872;2022-10-23T13:16:20;20.00;65.30
17296;DHT22;8766;51.480;6.872;2022-10-23T13:18:47;20.10;65.30
17296;DHT22;8766;51.480;6.872;2022-10-23T13:21:17;20.10;65.40
17296;DHT22;8766;51.480;6.872;2022-10-23T13:23:45;20.10;65.40
17296;DHT22;8766;51.480;6.872;2022-10-23T13:26:31;20.10;65.50
17296;DHT22;8766;51.480;6.872;2022-10-23T13:28:59;20.00;65.50
17296;DHT22;8766;51.480;6.872;2022-10-23T13:31:30;20.00;65.60
17296;DHT22;8766;51.480;6.872;2022-10-23T13:34:24;20.00;65.70
17296;DHT22;8766;51.480;6.872;2022-10-23T13:36:57;20.00;65.80
17296;DHT22;8766;51.480;6.872;2022-10-23T13:39:26;19.90;65.80
17296;DHT22;8766;51.480;6.872;2022-10-23T13:41:56;19.90;65.90
17296;DHT22;8766;51.480;6.872;2022-10-23T13:44:24;19.90;66.00
17296;DHT22;8766;51.480;6.872;2022-10-23T13:46:51;19.80;66.00
17296;DHT22;8766;51.480;6.872;2022-10-23T13:49:18;19.80;66.10
17296;DHT22;8766;51.480;6.872;2022-10-23T13:51:48;19.80;66.20
17296;DHT22;8766;51.480;6.872;2022-10-23T13:54:16;19.80;66.30
17296;DHT22;8766;51.480;6.872;2022-10-23T13:56:44;19.70;66.30
17296;DHT22;8766;51.480;6.872;2022-10-23T13:59:13;19.70;66.40
17296;DHT22;8766;51.480;6.872;2022-10-23T14:01:40;19.70;66.50
17296;DHT22;8766;51.480;6.872;2022-10-23T14:04:07;19.70;66.50
17296;DHT22;8766;51.480;6.872;2022-10-23T14:06:34;19.70;66.50
17296;DHT22;8766;51.480;6.872;2022-10-23T14:09:03;19.70;66.50
17296;DHT22;8766;51.480;6.872;2022-10-23T14:11:30;19.70;66.50
17296;DHT22;8766;51.480;6.872;2022-10-23T14:13:57;19.60;66.40
17296;DHT22;8766;51.480;6.872;2022-10-23T14:16:27;19.70;66.60
17296;DHT22;8766;51.480;6.872;2022-10-23T14:18:54;19.70;66.60
17296;DHT22;8766;51.480;6.872;2022-10-23T14:21:22;19.60;66.50
17296;DHT22;8766;51.480;6.872;2022-10-23T14:23:50;19.60;66.60
17296;DHT22;8766;51.480;6.872;2022-10-23T14:26:19;19.60;66.70
17296;DHT22;8766;51.480;6.872;2022-10-23T14:28:46;19.60;66.70
17296;DHT22;8766;51.480;6.872;2022-10-23T14:31:15;19.60;66.80
17296;DHT22;8766;51.480;6.872;2022-10-23T14:33:44;19.60;66.80
17296;DHT22;8766;51.480;6.872;2022-10-23T14:36:11;19.60;66.90
17296;DHT22;8766;51.480;6.872;2022-10-23T14:38:38;19.50;66.90
17296;DHT22;8766;51.480;6.872;2022-10-23T14:41:09;19.50;66.90
17296;DHT22;8766;51.480;6.872;2022-10-23T14:43:36;19.50;66.90
17296;DHT22;8766;51.480;6.872;2022-10-23T14:46:10;19.50;67.00
17296;DHT22;8766;51.480;6.872;2022-10-23T14:48:37;19.50;67.10
17296;DHT22;8766;51.480;6.872;2022-10-23T14:51:06;19.40;67.10
17296;DHT22;8766;51.480;6.872;2022-10-23T14:53:40;19.40;67.10
17296;DHT22;8766;51.480;6.872;2022-10-23T14:56:07;19.40;67.20
17296;DHT22;8766;51.480;6.872;2022-10-23T14:58:33;19.40;67.30
17296;DHT22;8766;51.480;6.872;2022-10-23T15:01:01;19.40;67.30
17296;DHT22;8766;51.480;6.872;2022-10-23T15:03:28;19.40;67.30
17296;DHT22;8766;51.480;6.872;2022-10-23T15:05:55;19.40;67.40
17296;DHT22;8766;51.480;6.872;2022-10-23T15:08:23;19.30;67.40
17296;DHT22;8766;51.480;6.872;2022-10-23T15:10:50;19.30;67.40
17296;DHT22;8766;51.480;6.872;2022-10-23T15:13:17;19.30;67.50
17296;DHT22;8766;51.480;6.872;2022-10-23T15:15:44;19.30;67.50
17296;DHT22;8766;51.480;6.872;2022-10-23T15:18:10;19.20;67.50
17296;DHT22;8766;51.480;6.872;2022-10-23T15:20:37;19.20;67.60
17296;DHT22;8766;51.480;6.872;2022-10-23T15:23:04;19.20;67.70
17296;DHT22;8766;51.480;6.872;2022-10-23T15:25:32;19.20;67.80
17296;DHT22;8766;51.480;6.872;2022-10-23T15:27:58;19.10;67.90
17296;DHT22;8766;51.480;6.872;2022-10-23T15:30:25;19.00;68.00
17296;DHT22;8766;51.480;6.872;2022-10-23T15:32:52;19.00;68.10
17296;DHT22;8766;51.480;6.872;2022-10-23T15:35:19;18.90;68.20
17296;DHT22;8766;51.480;6.872;2022-10-23T15:37:45;18.90;68.30
17296;DHT22;8766;51.480;6.872;2022-10-23T15:40:12;18.90;68.40
17296;DHT22;8766;51.480;6.872;2022-10-23T15:42:40;18.80;68.50
17296;DHT22;8766;51.480;6.872;2022-10-23T15:45:09;18.80;68.50
17296;DHT22;8766;51.480;6.872;2022-10-23T15:47:38;18.80;68.60
17296;DHT22;8766;51.480;6.872;2022-10-23T15:50:06;18.80;68.60
17296;DHT22;8766;51.480;6.872;2022-10-23T15:52:33;18.70;68.70
17296;DHT22;8766;51.480;6.872;2022-10-23T15:54:59;18.70;68.70
17296;DHT22;8766;51.480;6.872;2022-10-23T15:57:26;18.70;68.80
17296;DHT22;8766;51.480;6.872;2022-10-23T15:59:54;18.70;68.80
17296;DHT22;8766;51.480;6.872;2022-10-23T16:02:21;18.70;68.90
17296;DHT22;8766;51.480;6.872;2022-10-23T16:04:48;18.60;68.90
17296;DHT22;8766;51.480;6.872;2022-10-23T16:07:15;18.60;69.00